createdAt,value
2019-04-11T00:01:52.693Z,7.90
2019-04-11T00:04:19.569Z,7.90
2019-04-11T00:06:49.910Z,7.90
2019-04-11T00:09:20.713Z,7.90
2019-04-11T00:11:50.442Z,7.90
2019-04-11T00:14:20.025Z,7.90
2019-04-11T00:16:50.294Z,7.90
2019-04-11T00:19:21.173Z,7.80
2019-04-11T00:21:50.469Z,7.90
2019-04-11T00:24:20.791Z,7.90
2019-04-11T00:26:50.635Z,7.90
2019-04-11T00:29:20.562Z,7.90
2019-04-11T00:31:50.048Z,7.90
2019-04-11T00:34:19.229Z,7.90
2019-04-11T00:36:48.483Z,7.90
2019-04-11T00:39:18.108Z,7.80
2019-04-11T00:41:48.179Z,7.90
2019-04-11T00:44:18.822Z,7.80
2019-04-11T00:46:48.535Z,7.80
2019-04-11T00:49:18.704Z,7.90
2019-04-11T00:51:49.831Z,7.90
2019-04-11T00:54:18.908Z,7.90
2019-04-11T00:56:48.453Z,7.90
2019-04-11T00:59:18.291Z,7.90
2019-04-11T01:01:47.770Z,7.90
2019-04-11T01:04:17.851Z,8.00
2019-04-11T01:06:48.239Z,8.00
2019-04-11T01:09:18.000Z,8.00
2019-04-11T01:11:48.528Z,8.10
2019-04-11T01:14:17.628Z,8.10
2019-04-11T01:16:51.128Z,8.10
2019-04-11T01:19:22.598Z,8.10
2019-04-11T01:21:52.928Z,8.10
2019-04-11T01:24:22.109Z,8.10
2019-04-11T01:26:51.798Z,8.10
2019-04-11T01:29:21.471Z,8.10
2019-04-11T01:31:53.789Z,8.10
2019-04-11T01:34:24.437Z,8.20
2019-04-11T01:36:53.689Z,8.20
2019-04-11T01:39:27.942Z,8.10
2019-04-11T01:41:58.686Z,8.10
2019-04-11T01:44:28.442Z,8.00
2019-04-11T01:46:58.322Z,8.10
2019-04-11T01:49:30.340Z,8.00
2019-04-11T01:52:00.156Z,8.00
2019-04-11T01:54:30.008Z,8.10
2019-04-11T01:56:59.670Z,8.10
2019-04-11T01:59:29.130Z,8.10
2019-04-11T02:02:01.145Z,8.00
2019-04-11T02:04:37.014Z,8.00
2019-04-11T02:07:07.549Z,8.00
2019-04-11T02:09:35.962Z,8.00
2019-04-11T02:12:05.817Z,8.00
2019-04-11T02:14:35.608Z,8.00
2019-04-11T02:17:04.648Z,8.00
2019-04-11T02:19:34.462Z,8.00
2019-04-11T02:22:20.183Z,8.00
2019-04-11T02:24:57.688Z,8.00
2019-04-11T02:27:29.368Z,7.90
2019-04-11T02:29:58.669Z,7.90
2019-04-11T02:32:29.308Z,7.90
2019-04-11T02:34:59.851Z,7.90
2019-04-11T02:37:29.412Z,8.00
2019-04-11T02:40:00.075Z,7.90
2019-04-11T02:42:30.663Z,8.00
2019-04-11T02:45:13.886Z,8.00
2019-04-11T02:47:32.872Z,8.00
2019-04-11T02:50:00.895Z,8.00
2019-04-11T02:52:31.121Z,8.00
2019-04-11T02:55:00.772Z,8.10
2019-04-11T02:57:32.129Z,8.10
2019-04-11T03:00:01.865Z,8.00
2019-04-11T03:02:32.258Z,8.00
2019-04-11T03:05:02.800Z,8.00
2019-04-11T03:07:33.874Z,7.90
2019-04-11T03:10:03.518Z,7.90
2019-04-11T03:12:33.916Z,7.90
2019-04-11T03:15:21.223Z,7.80
2019-04-11T03:17:40.313Z,7.80
2019-04-11T03:20:15.544Z,7.70
2019-04-11T03:22:38.429Z,7.70
2019-04-11T03:25:08.782Z,7.60
2019-04-11T03:27:38.500Z,7.60
2019-04-11T03:30:14.609Z,7.50
2019-04-11T03:36:01.251Z,7.50
2019-04-11T03:37:58.578Z,7.40
2019-04-11T03:40:28.278Z,7.40
2019-04-11T03:42:54.326Z,7.40
2019-04-11T03:45:33.349Z,7.30
2019-04-11T03:48:00.890Z,7.30
2019-04-11T03:50:17.007Z,7.30
2019-04-11T03:52:45.055Z,7.30
2019-04-11T03:55:15.203Z,7.30
2019-04-11T03:57:46.836Z,7.30
2019-04-11T04:00:15.521Z,7.20
2019-04-11T04:02:46.594Z,7.10
2019-04-11T04:05:17.603Z,7.00
2019-04-11T04:07:48.729Z,7.00
2019-04-11T04:10:18.452Z,6.90
2019-04-11T04:12:48.370Z,6.90
2019-04-11T04:15:42.209Z,6.80
2019-04-11T04:18:03.538Z,6.70
2019-04-11T04:20:46.430Z,6.70
2019-04-11T04:23:18.808Z,6.60
2019-04-11T04:25:49.379Z,6.60
2019-04-11T04:28:21.278Z,6.60
2019-04-11T04:30:51.709Z,6.50
2019-04-11T04:33:22.737Z,6.60
2019-04-11T04:35:52.673Z,6.50
2019-04-11T04:38:23.387Z,6.50
2019-04-11T04:41:07.367Z,6.50
2019-04-11T04:43:22.909Z,6.50
2019-04-11T04:46:08.643Z,6.50
2019-04-11T04:48:26.762Z,6.50
2019-04-11T04:50:56.925Z,6.50
2019-04-11T04:53:27.718Z,6.40
2019-04-11T04:55:57.453Z,6.40
2019-04-11T04:58:26.701Z,6.40
2019-04-11T05:00:58.305Z,6.30
2019-04-11T05:03:26.927Z,6.30
2019-04-11T05:05:58.209Z,6.30
2019-04-11T05:08:27.295Z,6.30
2019-04-11T05:10:57.717Z,6.20
2019-04-11T05:13:28.171Z,6.30
2019-04-11T05:16:06.930Z,6.20
2019-04-11T05:18:28.448Z,6.20
2019-04-11T05:20:58.910Z,6.20
2019-04-11T05:23:28.148Z,6.20
2019-04-11T05:25:57.469Z,6.20
2019-04-11T05:28:27.687Z,6.20
2019-04-11T05:30:56.836Z,6.20
2019-04-11T05:33:27.276Z,6.20
2019-04-11T05:35:58.437Z,6.10
2019-04-11T05:38:27.748Z,6.10
2019-04-11T05:40:56.760Z,6.10
2019-04-11T05:43:29.244Z,6.10
2019-04-11T05:45:56.797Z,6.10
2019-04-11T05:48:28.599Z,6.10
2019-04-11T05:50:58.362Z,6.10
2019-04-11T05:53:27.900Z,6.10
2019-04-11T05:55:59.457Z,6.10
2019-04-11T05:58:30.413Z,6.10
2019-04-11T06:01:01.311Z,6.10
2019-04-11T06:03:32.232Z,6.10
2019-04-11T06:06:03.243Z,6.20
2019-04-11T06:08:32.708Z,6.30
2019-04-11T06:11:14.416Z,6.40
2019-04-11T06:13:42.783Z,6.50
2019-04-11T06:16:12.929Z,6.50
2019-04-11T06:19:01.789Z,6.50
2019-04-11T06:21:36.027Z,6.60
2019-04-11T06:24:09.911Z,6.70
2019-04-11T06:26:56.864Z,6.80
2019-04-11T06:29:31.197Z,6.90
2019-04-11T06:32:19.360Z,6.90
2019-04-11T06:34:51.262Z,6.90
2019-04-11T06:37:38.103Z,7.00
2019-04-11T06:40:21.156Z,7.00
2019-04-11T06:42:51.756Z,7.00
2019-04-11T06:45:38.198Z,7.00
2019-04-11T06:48:15.730Z,7.00
2019-04-11T06:50:55.709Z,7.00
2019-04-11T06:53:26.430Z,6.90
2019-04-11T06:56:00.715Z,6.90
2019-04-11T06:58:32.028Z,6.80
2019-04-11T07:01:03.525Z,6.90
2019-04-11T07:03:34.749Z,6.80
2019-04-11T07:06:05.468Z,6.80
2019-04-11T07:08:35.416Z,6.70
2019-04-11T07:11:17.884Z,6.70
2019-04-11T07:13:49.708Z,6.60
2019-04-11T07:16:20.067Z,6.40
2019-04-11T07:19:07.328Z,6.30
2019-04-11T07:21:38.310Z,6.20
2019-04-11T07:24:30.371Z,6.20
2019-04-11T07:27:07.366Z,6.10
2019-04-11T07:29:44.411Z,6.10
2019-04-11T07:32:22.408Z,6.00
2019-04-11T07:35:08.677Z,5.90
2019-04-11T07:37:38.680Z,5.90
2019-04-11T07:40:17.714Z,5.80
2019-04-11T07:42:52.782Z,5.70
2019-04-11T07:45:41.782Z,5.70
2019-04-11T07:48:24.961Z,5.80
2019-04-11T07:50:57.626Z,5.70
2019-04-11T07:53:35.216Z,5.80
2019-04-11T07:56:12.030Z,5.80
2019-04-11T07:58:46.429Z,5.80
2019-04-11T08:01:45.609Z,5.80
2019-04-11T08:04:21.756Z,5.80
2019-04-11T08:07:02.440Z,5.70
2019-04-11T08:09:36.668Z,5.70
2019-04-11T08:12:21.317Z,5.70
2019-04-11T08:14:53.031Z,5.70
2019-04-11T08:17:30.830Z,5.70
2019-04-11T08:20:13.105Z,5.60
2019-04-11T08:22:47.604Z,5.60
2019-04-11T08:25:21.513Z,5.60
2019-04-11T08:28:00.269Z,5.60
2019-04-11T08:30:24.706Z,5.60
2019-04-11T08:32:55.651Z,5.60
2019-04-11T08:35:38.269Z,5.60
2019-04-11T08:38:18.511Z,5.60
2019-04-11T08:40:49.855Z,5.60
2019-04-11T08:43:21.333Z,5.60
2019-04-11T08:46:04.691Z,5.60
2019-04-11T08:48:42.798Z,5.60
2019-04-11T08:51:14.578Z,5.60
2019-04-11T08:53:45.767Z,5.60
2019-04-11T08:56:16.756Z,5.70
2019-04-11T08:59:02.838Z,5.70
2019-04-11T09:01:32.905Z,5.70
2019-04-11T09:04:10.189Z,5.70
2019-04-11T09:06:37.491Z,5.80
2019-04-11T09:09:09.168Z,5.80
2019-04-11T09:11:41.151Z,5.90
2019-04-11T09:14:30.480Z,6.00
2019-04-11T09:17:04.093Z,6.10
2019-04-11T09:19:51.489Z,6.20
2019-04-11T09:22:41.515Z,6.30
2019-04-11T09:25:30.503Z,6.40
2019-04-11T09:28:13.857Z,6.50
2019-04-11T09:30:50.868Z,6.50
2019-04-11T09:33:33.728Z,6.60
2019-04-11T09:36:19.869Z,6.60
2019-04-11T09:38:56.997Z,6.80
2019-04-11T09:41:44.826Z,6.80
2019-04-11T09:44:16.917Z,6.90
2019-04-11T09:47:05.968Z,7.00
2019-04-11T09:49:37.687Z,7.00
2019-04-11T09:52:17.948Z,7.00
2019-04-11T09:54:54.685Z,7.10
2019-04-11T09:57:26.824Z,7.10
2019-04-11T10:00:12.776Z,7.20
2019-04-11T10:02:56.285Z,7.20
2019-04-11T10:05:27.348Z,7.20
2019-04-11T10:08:13.148Z,7.20
2019-04-11T10:11:01.761Z,7.20
2019-04-11T10:13:33.891Z,7.10
2019-04-11T10:16:09.578Z,7.10
2019-04-11T10:18:47.374Z,7.20
2019-04-11T10:21:19.369Z,7.20
2019-04-11T10:23:51.373Z,7.20
2019-04-11T10:26:21.189Z,7.30
2019-04-11T10:29:04.366Z,7.30
2019-04-11T10:31:35.350Z,7.30
2019-04-11T10:34:21.711Z,7.20
2019-04-11T10:36:53.624Z,7.10
2019-04-11T10:39:37.510Z,7.00
2019-04-11T10:42:12.518Z,6.90
2019-04-11T10:44:58.568Z,6.80
2019-04-11T10:47:34.231Z,6.70
2019-04-11T10:50:05.130Z,6.70
2019-04-11T10:52:51.088Z,6.50
2019-04-11T10:55:28.028Z,6.40
2019-04-11T10:58:14.108Z,6.30
2019-04-11T11:00:57.499Z,6.20
2019-04-11T11:03:31.488Z,6.20
2019-04-11T11:06:03.147Z,6.10
2019-04-11T11:08:46.430Z,6.10
2019-04-11T11:11:17.517Z,6.10
2019-04-11T11:13:48.495Z,6.00
2019-04-11T11:16:18.469Z,5.90
2019-04-11T11:19:26.239Z,5.90
2019-04-11T11:21:33.267Z,5.90
2019-04-11T11:24:08.672Z,5.80
2019-04-11T11:26:39.093Z,5.80
2019-04-11T11:29:14.798Z,5.80
2019-04-11T11:31:43.051Z,5.80
2019-04-11T11:34:17.337Z,5.80
2019-04-11T11:36:48.473Z,5.80
2019-04-11T11:39:35.653Z,5.70
2019-04-11T11:42:30.382Z,5.70
2019-04-11T11:45:11.057Z,5.70
2019-04-11T11:48:02.289Z,5.70
2019-04-11T11:50:34.514Z,5.60
2019-04-11T11:53:20.454Z,5.70
2019-04-11T11:55:51.628Z,5.60
2019-04-11T11:58:38.750Z,5.60
2019-04-11T12:01:09.450Z,5.60
2019-04-11T12:03:46.711Z,5.60
2019-04-11T12:06:19.796Z,5.60
2019-04-11T12:09:04.474Z,5.60
2019-04-11T12:11:35.996Z,5.60
2019-04-11T12:14:09.717Z,5.70
2019-04-11T12:16:48.596Z,5.70
2019-04-11T12:19:21.365Z,5.80
2019-04-11T12:21:51.841Z,5.80
2019-04-11T12:24:25.630Z,5.90
2019-04-11T12:26:56.688Z,5.90
2019-04-11T12:29:36.433Z,5.90
2019-04-11T12:32:08.670Z,6.00
2019-04-11T12:34:55.715Z,6.10
2019-04-11T12:37:29.950Z,6.20
2019-04-11T12:40:09.728Z,6.30
2019-04-11T12:42:40.988Z,6.40
2019-04-11T12:45:27.249Z,6.40
2019-04-11T12:47:56.330Z,6.50
2019-04-11T12:50:43.471Z,6.60
2019-04-11T12:53:13.369Z,6.60
2019-04-11T12:55:49.328Z,6.60
2019-04-11T12:58:25.788Z,6.60
2019-04-11T13:00:59.529Z,6.60
2019-04-11T13:03:39.128Z,6.80
2019-04-11T13:06:35.618Z,6.90
2019-04-11T13:09:15.855Z,6.90
2019-04-11T13:12:04.591Z,6.90
2019-04-11T13:14:35.189Z,6.90
2019-04-11T13:17:06.269Z,6.90
2019-04-11T13:20:04.211Z,6.90
2019-04-11T13:22:37.468Z,7.00
2019-04-11T13:25:25.969Z,6.90
2019-04-11T13:28:00.148Z,6.90
2019-04-11T13:30:37.509Z,6.90
2019-04-11T13:33:17.908Z,6.90
2019-04-11T13:36:03.449Z,6.80
2019-04-11T13:38:34.091Z,6.90
2019-04-11T13:41:20.594Z,6.90
2019-04-11T13:43:52.309Z,6.80
2019-04-11T13:46:35.308Z,6.90
2019-04-11T13:49:18.028Z,6.90
2019-04-11T13:51:49.048Z,6.90
2019-04-11T13:54:29.209Z,6.80
2019-04-11T13:57:08.808Z,6.90
2019-04-11T13:59:55.869Z,6.80
2019-04-11T14:02:50.687Z,6.70
2019-04-11T14:05:19.588Z,6.70
2019-04-11T14:07:49.789Z,6.70
2019-04-11T14:10:31.490Z,6.70
2019-04-11T14:13:01.030Z,6.60
2019-04-11T14:15:36.908Z,6.60
2019-04-11T14:18:27.548Z,6.60
2019-04-11T14:21:14.932Z,6.60
2019-04-11T14:24:03.348Z,6.60
2019-04-11T14:26:50.788Z,6.70
2019-04-11T14:29:27.629Z,6.80
2019-04-11T14:32:00.528Z,6.80
2019-04-11T14:34:40.428Z,6.80
2019-04-11T14:37:37.462Z,6.80
2019-04-11T14:40:23.408Z,6.90
2019-04-11T14:43:05.529Z,6.80
2019-04-11T14:45:54.191Z,6.90
2019-04-11T14:48:27.548Z,6.90
2019-04-11T14:51:04.031Z,6.90
2019-04-11T14:53:46.488Z,6.80
2019-04-11T14:56:14.408Z,6.80
2019-04-11T14:58:45.029Z,6.80
2019-04-11T15:01:14.849Z,6.80
2019-04-11T15:03:54.130Z,6.80
2019-04-11T15:06:24.708Z,6.80
2019-04-11T15:08:58.188Z,6.80
2019-04-11T15:11:34.988Z,6.80
2019-04-11T15:14:22.115Z,6.80
2019-04-11T15:16:52.609Z,6.80
2019-04-11T15:19:23.881Z,6.80
2019-04-11T15:21:54.829Z,6.80
2019-04-11T15:24:23.268Z,6.80
2019-04-11T15:26:56.869Z,6.70
2019-04-11T15:29:27.715Z,6.60
2019-04-11T15:32:01.755Z,6.60
2019-04-11T15:34:33.630Z,6.70
2019-04-11T15:37:19.708Z,6.80
2019-04-11T15:40:05.849Z,6.70
2019-04-11T15:42:48.588Z,6.70
2019-04-11T15:45:34.869Z,6.60
2019-04-11T15:48:23.434Z,6.50
2019-04-11T15:51:07.117Z,6.50
2019-04-11T15:53:47.549Z,6.40
2019-04-11T15:56:23.988Z,6.40
2019-04-11T15:59:02.993Z,6.50
2019-04-11T16:01:49.789Z,6.50
2019-04-11T16:04:23.189Z,6.50
2019-04-11T16:07:12.048Z,6.40
2019-04-11T16:09:49.911Z,6.40
2019-04-11T16:12:20.670Z,6.40
2019-04-11T16:14:51.507Z,6.40
2019-04-11T16:17:25.329Z,6.50
2019-04-11T16:19:55.868Z,6.50
2019-04-11T16:22:34.749Z,6.50
2019-04-11T16:25:14.910Z,6.60
2019-04-11T16:28:02.228Z,6.60
2019-04-11T16:30:32.768Z,6.60
2019-04-11T16:33:07.151Z,6.60
2019-04-11T16:35:49.498Z,6.60
2019-04-11T16:38:32.110Z,6.50
2019-04-11T16:41:17.791Z,6.50
2019-04-11T16:43:54.863Z,6.50
2019-04-11T16:46:41.630Z,6.40
2019-04-11T16:49:10.948Z,6.40
2019-04-11T16:51:40.208Z,6.40
2019-04-11T16:54:09.754Z,6.40
2019-04-11T16:56:39.410Z,6.40
2019-04-11T16:59:08.367Z,6.40
2019-04-11T17:01:37.589Z,6.50
2019-04-11T17:04:06.568Z,6.50
2019-04-11T17:06:39.928Z,6.50
2019-04-11T17:09:10.430Z,6.50
2019-04-11T17:11:39.490Z,6.50
2019-04-11T17:14:08.550Z,6.50
2019-04-11T17:16:37.711Z,6.50
2019-04-11T17:19:06.897Z,6.50
2019-04-11T17:21:43.183Z,6.40
2019-04-11T17:24:06.359Z,6.50
2019-04-11T17:26:35.091Z,6.40
2019-04-11T17:29:04.268Z,6.40
2019-04-11T17:31:33.312Z,6.40
2019-04-11T17:34:04.286Z,6.50
2019-04-11T17:36:33.812Z,6.50
2019-04-11T17:39:06.734Z,6.50
2019-04-11T17:41:34.428Z,6.40
2019-04-11T17:44:03.717Z,6.40
2019-04-11T17:46:32.896Z,6.30
2019-04-11T17:49:01.729Z,6.30
2019-04-11T17:51:34.413Z,6.30
2019-04-11T17:54:01.461Z,6.30
2019-04-11T17:56:30.649Z,6.30
2019-04-11T17:58:59.710Z,6.30
2019-04-11T18:01:29.248Z,6.20
2019-04-11T18:03:58.911Z,6.20
2019-04-11T18:06:28.008Z,6.20
2019-04-11T18:08:57.248Z,6.30
2019-04-11T18:11:26.698Z,6.20
2019-04-11T18:13:56.250Z,6.20
2019-04-11T18:16:25.168Z,6.10
2019-04-11T18:18:54.529Z,6.20
2019-04-11T18:21:23.429Z,6.10
2019-04-11T18:23:52.688Z,6.20
2019-04-11T18:26:22.152Z,6.20
2019-04-11T18:28:52.581Z,6.10
2019-04-11T18:31:24.803Z,6.20
2019-04-11T18:33:52.969Z,6.20
2019-04-11T18:36:21.970Z,6.20
2019-04-11T18:38:51.508Z,6.20
2019-04-11T18:41:20.869Z,6.10
2019-04-11T18:43:50.887Z,6.20
2019-04-11T18:46:20.190Z,6.20
2019-04-11T18:48:48.928Z,6.20
2019-04-11T18:51:17.808Z,6.20
2019-04-11T18:53:46.949Z,6.20
2019-04-11T18:56:15.940Z,6.20
2019-04-11T18:58:45.209Z,6.20
2019-04-11T19:01:15.020Z,6.30
2019-04-11T19:03:43.965Z,6.30
2019-04-11T19:06:14.568Z,6.30
2019-04-11T19:08:43.949Z,6.30
2019-04-11T19:11:15.775Z,6.30
2019-04-11T19:13:46.834Z,6.30
2019-04-11T19:16:16.099Z,6.20
2019-04-11T19:18:47.597Z,6.20
2019-04-11T19:21:21.002Z,6.20
2019-04-11T19:23:49.570Z,6.10
2019-04-11T19:26:18.549Z,6.10
2019-04-11T19:28:49.260Z,6.10
2019-04-11T19:31:19.389Z,6.10
2019-04-11T19:33:50.351Z,6.00
2019-04-11T19:36:19.314Z,5.90
2019-04-11T19:38:48.329Z,5.80
2019-04-11T19:41:18.339Z,5.80
2019-04-11T19:43:49.205Z,5.80
2019-04-11T19:46:20.325Z,5.70
2019-04-11T19:48:48.678Z,5.60
2019-04-11T19:51:17.808Z,5.50
2019-04-11T19:53:46.930Z,5.40
2019-04-11T19:56:17.633Z,5.40
2019-04-11T19:58:46.649Z,5.30
2019-04-11T20:01:15.552Z,5.30
2019-04-11T20:03:45.110Z,5.30
2019-04-11T20:06:14.429Z,5.30
2019-04-11T20:08:43.891Z,5.30
2019-04-11T20:11:12.909Z,5.40
2019-04-11T20:13:42.749Z,5.30
2019-04-11T20:16:12.499Z,5.30
2019-04-11T20:18:50.799Z,5.30
2019-04-11T20:21:13.393Z,5.30
2019-04-11T20:23:42.954Z,5.40
2019-04-11T20:26:12.269Z,5.40
2019-04-11T20:28:43.229Z,5.40
2019-04-11T20:31:12.210Z,5.30
2019-04-11T20:33:41.649Z,5.20
2019-04-11T20:36:11.341Z,5.20
2019-04-11T20:38:41.019Z,5.20
2019-04-11T20:41:10.189Z,5.20
2019-04-11T20:43:39.969Z,5.30
2019-04-11T20:46:09.589Z,5.30
2019-04-11T20:48:38.748Z,5.20
2019-04-11T20:51:08.409Z,5.20
2019-04-11T20:53:37.737Z,5.20
2019-04-11T20:56:09.717Z,5.20
2019-04-11T20:58:39.753Z,5.20
2019-04-11T21:01:08.278Z,5.10
2019-04-11T21:03:37.168Z,5.10
2019-04-11T21:06:06.708Z,5.10
2019-04-11T21:08:36.809Z,5.00
2019-04-11T21:11:05.989Z,5.00
2019-04-11T21:13:38.113Z,5.00
2019-04-11T21:16:07.579Z,5.00
2019-04-11T21:18:36.736Z,5.00
2019-04-11T21:21:05.869Z,5.00
2019-04-11T21:23:34.889Z,5.00
2019-04-11T21:26:03.849Z,5.00
2019-04-11T21:28:32.808Z,5.00
2019-04-11T21:31:02.171Z,5.00
2019-04-11T21:33:34.270Z,4.90
2019-04-11T21:36:02.083Z,5.00
2019-04-11T21:38:32.008Z,5.00
2019-04-11T21:41:01.401Z,5.00
2019-04-11T21:43:31.089Z,5.00
2019-04-11T21:46:00.092Z,5.00
2019-04-11T21:48:29.428Z,5.00
2019-04-11T21:50:58.478Z,5.00
2019-04-11T21:53:35.987Z,5.00
2019-04-11T21:55:58.128Z,5.00
2019-04-11T21:58:27.248Z,4.90
2019-04-11T22:01:01.869Z,5.00
2019-04-11T22:03:30.908Z,4.90
2019-04-11T22:06:00.563Z,4.90
2019-04-11T22:08:31.920Z,4.90
2019-04-11T22:11:03.104Z,5.00
2019-04-11T22:13:32.288Z,4.90
2019-04-11T22:16:01.714Z,5.00
2019-04-11T22:18:31.089Z,5.00
2019-04-11T22:21:00.187Z,5.00
2019-04-11T22:23:30.147Z,5.00
2019-04-11T22:25:59.652Z,5.00
2019-04-11T22:28:29.092Z,5.00
2019-04-11T22:30:58.855Z,5.00
2019-04-11T22:33:29.948Z,5.00
2019-04-11T22:35:59.856Z,5.00
2019-04-11T22:38:30.936Z,4.90
2019-04-11T22:41:02.056Z,4.90
2019-04-11T22:43:30.668Z,4.90
2019-04-11T22:46:00.088Z,4.90
2019-04-11T22:48:30.427Z,4.90
2019-04-11T22:50:59.829Z,4.80
2019-04-11T22:53:28.989Z,4.80
2019-04-11T22:55:58.428Z,4.80
2019-04-11T22:58:27.868Z,4.80
2019-04-11T23:00:56.749Z,4.90
2019-04-11T23:03:42.095Z,4.80
2019-04-11T23:06:11.529Z,4.80
2019-04-11T23:08:40.353Z,4.90
2019-04-11T23:11:09.728Z,4.80
2019-04-11T23:13:39.216Z,4.80
2019-04-11T23:16:08.029Z,4.80
2019-04-11T23:18:37.790Z,4.80
2019-04-11T23:21:06.750Z,4.80
2019-04-11T23:23:35.509Z,4.80
2019-04-11T23:26:04.817Z,4.80
2019-04-11T23:28:33.791Z,4.80
2019-04-11T23:31:03.168Z,4.80
2019-04-11T23:33:32.190Z,4.70
2019-04-11T23:36:01.488Z,4.70
2019-04-11T23:38:31.048Z,4.70
2019-04-11T23:41:00.408Z,4.70
2019-04-11T23:43:30.649Z,4.70
2019-04-11T23:45:59.888Z,4.80
2019-04-11T23:48:28.828Z,4.70
2019-04-11T23:50:57.848Z,4.80
2019-04-11T23:53:29.126Z,4.80
2019-04-11T23:56:00.165Z,4.90
2019-04-11T23:58:31.850Z,4.90
